Bretagne — FNBR — position and weather

sailwx.info

Track history (hours):
 
Tides and Currents Weather Stations Pressure Air Temp Water Temp Dewpoint Dewpoint Depression Visibility Wind Speed Wind Dir Waves Ship Positions

Bretagne

Operator: Brittany Ferries

Last reported at 2015-Sep-01 19:32 UTC. Time now 2015-Sep-01 20:25 UTC.
Position N 50°49' W 001°06'.

Length 151 m; beam 27 m.

Type: Ship. MMSI: 227286000.

Date/timePositionNaut miles runAvg speedWind from/ knotsBaromVisibWave heightAir tempDewpointWater temp
2015-Sep-01 19:32N 50°49' W 001°06'0 0.0
2015-Sep-01 18:32N 50°49' W 001°06'0 0.0
2015-Sep-01 17:33N 50°49' W 001°06'9 8.8
2015-Sep-01 16:33N 50°40' W 001°04'25 1.5
2015-Aug-31 23:10N 50°19' W 001°26'813.9
2015-Aug-31 22:33N 50°26' W 001°18'1312.7
2015-Aug-31 21:33N 50°36' W 001°08'1111.5
2015-Aug-31 20:33N 50°48' W 001°07'1 1.0
2015-Aug-31 19:32N 50°49' W 001°06'0 0.0
2015-Aug-31 18:32N 50°49' W 001°06'3 3.5
2015-Aug-31 17:34N 50°45' W 001°05'1413.5
2015-Aug-31 16:32N 50°32' W 001°08'14 0.8
2015-Aug-30 22:23N 50°21' W 001°23'1214.0
2015-Aug-30 21:33N 50°30' W 001°13'1312.7
2015-Aug-30 20:34N 50°41' W 001°03'8 7.5
2015-Aug-30 19:31N 50°49' W 001°06'0 0.0
2015-Aug-30 18:31N 50°49' W 001°06'0 0.0
2015-Aug-30 17:34N 50°49' W 001°06'1010.1
2015-Aug-30 16:33N 50°39' W 001°01'3517.4
2015-Aug-30 14:31N 50°11' W 001°36'1915.8
2015-Aug-30 13:20N 49°55' W 001°50'3516.2
2015-Aug-30 11:11N 49°24' W 002°16'1419.2
2015-Aug-30 10:27N 49°10' W 002°22'1820.5
2015-Aug-30 09:33N 48°52' W 002°19'10 2.6
2015-Aug-30 05:31N 48°44' W 002°08'9713.6
2015-Aug-29 22:25N 50°17' W 001°26'1213.8
2015-Aug-29 21:34N 50°27' W 001°15'1413.6
2015-Aug-29 20:34N 50°39' W 001°05'10 9.8
2015-Aug-29 19:33N 50°49' W 001°06'0 0.1
2015-Aug-29 18:32N 50°49' W 001°06'0 0.0
2015-Aug-29 17:34N 50°49' W 001°06'1211.8
2015-Aug-29 16:33N 50°37' W 001°08'4418.1
2015-Aug-29 14:06N 50°05' W 001°55'77 8.7
2015-Aug-29 05:16N 48°49' W 002°13'3211.8
2015-Aug-29 02:33N 49°20' W 002°19'1212.4
2015-Aug-29 01:34N 49°31' W 002°11'5315.4
2015-Aug-28 22:08N 50°17' W 001°29'915.3
2015-Aug-28 21:33N 50°23' W 001°20'1414.1
2015-Aug-28 20:33N 50°34' W 001°06'1212.4
2015-Aug-28 19:33N 50°46' W 001°06'2 2.2
2015-Aug-28 18:31N 50°49' W 001°06'0 0.0
2015-Aug-28 17:31N 50°49' W 001°06'5 5.6
2015-Aug-28 16:33N 50°44' W 001°03'22 1.1
2015-Aug-27 21:20N 50°25' W 001°20'1114.7
2015-Aug-27 20:33N 50°34' W 001°10'1212.4
2015-Aug-27 19:34N 50°46' W 001°05'3 2.6
2015-Aug-27 18:33N 50°49' W 001°06'0 0.0
2015-Aug-27 17:33N 50°49' W 001°06'2 2.4
2015-Aug-27 16:34N 50°46' W 001°05'33 1.8
2015-Aug-26 22:18N 50°15' W 001°23'1313.6
2015-Aug-26 21:21N 50°27' W 001°16'1215.1
2015-Aug-26 20:33N 50°37' W 001°07'1111.3
2015-Aug-26 19:33N 50°49' W 001°06'0 0.4
2015-Aug-26 18:31N 50°49' W 001°06'0 0.0
2015-Aug-26 17:31N 50°49' W 001°06'3 3.5
2015-Aug-26 16:34N 50°45' W 001°05'25 1.3
2015-Aug-25 21:33N 50°23' W 001°24'1515.5
2015-Aug-25 20:33N 50°35' W 001°09'1312.8
2015-Aug-25 19:33N 50°48' W 001°07'1 1.0
2015-Aug-25 18:32N 50°49' W 001°06'0 0.0
2015-Aug-25 17:32N 50°49' W 001°06'2 2.5
2015-Aug-25 16:34N 50°46' W 001°05'1616.2
2015-Aug-25 15:34N 50°31' W 001°13'10 0.6
2015-Aug-24 21:27N 50°22' W 001°23'1516.3
2015-Aug-24 20:33N 50°34' W 001°10'1313.1
2015-Aug-24 19:33N 50°47' W 001°07'1 1.5
2015-Aug-24 18:33N 50°49' W 001°06'0 0.0
2015-Aug-24 17:33N 50°49' W 001°06'2 2.5
2015-Aug-24 16:34N 50°46' W 001°05'1716.3
2015-Aug-24 15:30N 50°30' W 001°14'22 1.3
2015-Aug-23 22:11N 50°12' W 001°34'1016.4
2015-Aug-23 21:34N 50°20' W 001°25'1716.7
2015-Aug-23 20:33N 50°34' W 001°10'1313.0
2015-Aug-23 19:34N 50°47' W 001°06'2 1.6
2015-Aug-23 18:31N 50°49' W 001°06'0 0.0
2015-Aug-23 17:31N 50°49' W 001°06'2 2.6
2015-Aug-23 16:34N 50°46' W 001°05'1414.0
2015-Aug-23 15:33N 50°33' W 001°11'22 1.3
2015-Aug-22 22:10N 50°14' W 001°31'1016.0
2015-Aug-22 21:34N 50°23' W 001°23'1616.4
2015-Aug-22 20:34N 50°36' W 001°08'1212.4
2015-Aug-22 19:34N 50°48' W 001°07'  
Track history (hours):
 
Tides and Currents Weather Stations Pressure Air Temp Water Temp Dewpoint Dewpoint Depression Visibility Wind Speed Wind Dir Waves Ship Positions

Bretagne

Operator: Brittany Ferries

Last reported at 2015-Sep-01 19:32 UTC. Time now 2015-Sep-01 20:25 UTC.
Position N 50°49' W 001°06'.

Length 151 m; beam 27 m.

Type: Ship. MMSI: 227286000.

Date/timePositionNaut miles runAvg speedWind from/ knotsBaromVisibWave heightAir tempDewpointWater temp
2015-Sep-01 19:32N 50°49' W 001°06'0 0.0
2015-Sep-01 18:32N 50°49' W 001°06'0 0.0
2015-Sep-01 17:33N 50°49' W 001°06'9 8.8
2015-Sep-01 16:33N 50°40' W 001°04'25 1.5
2015-Aug-31 23:10N 50°19' W 001°26'813.9
2015-Aug-31 22:33N 50°26' W 001°18'1312.7
2015-Aug-31 21:33N 50°36' W 001°08'1111.5
2015-Aug-31 20:33N 50°48' W 001°07'1 1.0
2015-Aug-31 19:32N 50°49' W 001°06'0 0.0
2015-Aug-31 18:32N 50°49' W 001°06'3 3.5
2015-Aug-31 17:34N 50°45' W 001°05'1413.5
2015-Aug-31 16:32N 50°32' W 001°08'14 0.8
2015-Aug-30 22:23N 50°21' W 001°23'1214.0
2015-Aug-30 21:33N 50°30' W 001°13'1312.7
2015-Aug-30 20:34N 50°41' W 001°03'8 7.5
2015-Aug-30 19:31N 50°49' W 001°06'0 0.0
2015-Aug-30 18:31N 50°49' W 001°06'0 0.0
2015-Aug-30 17:34N 50°49' W 001°06'1010.1
2015-Aug-30 16:33N 50°39' W 001°01'3517.4
2015-Aug-30 14:31N 50°11' W 001°36'1915.8
2015-Aug-30 13:20N 49°55' W 001°50'3516.2
2015-Aug-30 11:11N 49°24' W 002°16'1419.2
2015-Aug-30 10:27N 49°10' W 002°22'1820.5
2015-Aug-30 09:33N 48°52' W 002°19'10 2.6
2015-Aug-30 05:31N 48°44' W 002°08'9713.6
2015-Aug-29 22:25N 50°17' W 001°26'1213.8
2015-Aug-29 21:34N 50°27' W 001°15'1413.6
2015-Aug-29 20:34N 50°39' W 001°05'10 9.8
2015-Aug-29 19:33N 50°49' W 001°06'0 0.1
2015-Aug-29 18:32N 50°49' W 001°06'0 0.0
2015-Aug-29 17:34N 50°49' W 001°06'1211.8
2015-Aug-29 16:33N 50°37' W 001°08'4418.1
2015-Aug-29 14:06N 50°05' W 001°55'77 8.7
2015-Aug-29 05:16N 48°49' W 002°13'3211.8
2015-Aug-29 02:33N 49°20' W 002°19'1212.4
2015-Aug-29 01:34N 49°31' W 002°11'5315.4
2015-Aug-28 22:08N 50°17' W 001°29'915.3
2015-Aug-28 21:33N 50°23' W 001°20'1414.1
2015-Aug-28 20:33N 50°34' W 001°06'1212.4
2015-Aug-28 19:33N 50°46' W 001°06'2 2.2
2015-Aug-28 18:31N 50°49' W 001°06'0 0.0
2015-Aug-28 17:31N 50°49' W 001°06'5 5.6
2015-Aug-28 16:33N 50°44' W 001°03'22 1.1
2015-Aug-27 21:20N 50°25' W 001°20'1114.7
2015-Aug-27 20:33N 50°34' W 001°10'1212.4
2015-Aug-27 19:34N 50°46' W 001°05'3 2.6
2015-Aug-27 18:33N 50°49' W 001°06'0 0.0
2015-Aug-27 17:33N 50°49' W 001°06'2 2.4
2015-Aug-27 16:34N 50°46' W 001°05'33 1.8
2015-Aug-26 22:18N 50°15' W 001°23'1313.6
2015-Aug-26 21:21N 50°27' W 001°16'1215.1
2015-Aug-26 20:33N 50°37' W 001°07'1111.3
2015-Aug-26 19:33N 50°49' W 001°06'0 0.4
2015-Aug-26 18:31N 50°49' W 001°06'0 0.0
2015-Aug-26 17:31N 50°49' W 001°06'3 3.5
2015-Aug-26 16:34N 50°45' W 001°05'25 1.3
2015-Aug-25 21:33N 50°23' W 001°24'1515.5
2015-Aug-25 20:33N 50°35' W 001°09'1312.8
2015-Aug-25 19:33N 50°48' W 001°07'1 1.0
2015-Aug-25 18:32N 50°49' W 001°06'0 0.0
2015-Aug-25 17:32N 50°49' W 001°06'2 2.5
2015-Aug-25 16:34N 50°46' W 001°05'1616.2
2015-Aug-25 15:34N 50°31' W 001°13'10 0.6
2015-Aug-24 21:27N 50°22' W 001°23'1516.3
2015-Aug-24 20:33N 50°34' W 001°10'1313.1
2015-Aug-24 19:33N 50°47' W 001°07'1 1.5
2015-Aug-24 18:33N 50°49' W 001°06'0 0.0
2015-Aug-24 17:33N 50°49' W 001°06'2 2.5
2015-Aug-24 16:34N 50°46' W 001°05'1716.3
2015-Aug-24 15:30N 50°30' W 001°14'22 1.3
2015-Aug-23 22:11N 50°12' W 001°34'1016.4
2015-Aug-23 21:34N 50°20' W 001°25'1716.7
2015-Aug-23 20:33N 50°34' W 001°10'1313.0
2015-Aug-23 19:34N 50°47' W 001°06'2 1.6
2015-Aug-23 18:31N 50°49' W 001°06'0 0.0
2015-Aug-23 17:31N 50°49' W 001°06'2 2.6
2015-Aug-23 16:34N 50°46' W 001°05'1414.0
2015-Aug-23 15:33N 50°33' W 001°11'22 1.3
2015-Aug-22 22:10N 50°14' W 001°31'1016.0
2015-Aug-22 21:34N 50°23' W 001°23'1616.4
2015-Aug-22 20:34N 50°36' W 001°08'1212.4
2015-Aug-22 19:34N 50°48' W 001°07'  

Dump ship's entire track history